createdAt,value
2023-03-08T00:01:29.524Z,66.38
2023-03-08T00:03:32.750Z,66.42
2023-03-08T00:05:39.037Z,66.02
2023-03-08T00:07:43.708Z,65.88
2023-03-08T00:09:46.964Z,66.44
2023-03-08T00:11:50.035Z,66.08
2023-03-08T00:13:56.470Z,66.71
2023-03-08T00:16:00.887Z,66.63
2023-03-08T00:18:07.001Z,66.82
2023-03-08T00:20:12.297Z,66.69
2023-03-08T00:22:15.327Z,66.72
2023-03-08T00:24:19.905Z,66.19
2023-03-08T00:26:23.117Z,66.52
2023-03-08T00:28:26.501Z,66.51
2023-03-08T00:30:29.784Z,66.91
2023-03-08T00:32:33.177Z,66.50
2023-03-08T00:34:36.262Z,66.52
2023-03-08T00:36:39.317Z,66.52
2023-03-08T00:38:42.409Z,66.95
2023-03-08T00:40:47.028Z,66.32
2023-03-08T00:42:50.100Z,66.24
2023-03-08T00:44:53.593Z,66.41
2023-03-08T00:46:56.705Z,66.53
2023-03-08T00:48:59.953Z,66.91
2023-03-08T00:51:06.050Z,66.61
2023-03-08T00:53:09.356Z,66.97
2023-03-08T00:55:12.781Z,67.37
2023-03-08T00:57:17.838Z,66.98
2023-03-08T00:59:23.339Z,67.12
2023-03-08T01:01:27.131Z,66.55
2023-03-08T01:03:29.269Z,67.16
2023-03-08T01:05:32.394Z,66.94
2023-03-08T01:07:35.780Z,66.60
2023-03-08T01:09:38.914Z,65.92
2023-03-08T01:11:45.561Z,66.60
2023-03-08T01:13:54.347Z,66.55
2023-03-08T01:15:57.621Z,66.43
2023-03-08T01:18:00.914Z,66.09
2023-03-08T01:20:07.271Z,66.78
2023-03-08T01:22:10.814Z,66.62
2023-03-08T01:24:17.834Z,66.50
2023-03-08T01:26:23.117Z,67.35
2023-03-08T01:28:26.220Z,67.67
2023-03-08T01:30:30.758Z,67.24
2023-03-08T01:32:35.512Z,67.73
2023-03-08T01:34:40.883Z,67.86
2023-03-08T01:36:43.976Z,66.99
2023-03-08T01:38:50.335Z,67.77
2023-03-08T01:40:58.263Z,67.18
2023-03-08T01:43:12.803Z,68.03
2023-03-08T01:45:53.264Z,68.20
2023-03-08T01:47:58.254Z,67.81
2023-03-08T01:50:21.750Z,68.09
2023-03-08T01:52:26.927Z,67.88
2023-03-08T01:54:32.689Z,67.40
2023-03-08T01:56:37.314Z,68.01
2023-03-08T01:58:41.800Z,68.37
2023-03-08T02:00:44.919Z,67.63
2023-03-08T02:05:25.589Z,68.01
2023-03-08T02:07:33.898Z,68.02
2023-03-08T02:09:37.607Z,67.79
2023-03-08T02:11:42.167Z,67.96
2023-03-08T02:13:45.815Z,68.08
2023-03-08T02:15:50.162Z,68.00
2023-03-08T02:17:56.044Z,68.14
2023-03-08T02:20:01.180Z,68.11
2023-03-08T02:22:10.743Z,68.06
2023-03-08T02:24:23.668Z,68.20
2023-03-08T02:26:26.780Z,68.68
2023-03-08T02:28:30.076Z,68.27
2023-03-08T02:30:36.146Z,68.58
2023-03-08T02:32:39.357Z,68.02
2023-03-08T02:34:42.468Z,67.71
2023-03-08T02:36:45.507Z,68.80
2023-03-08T02:38:48.465Z,68.55
2023-03-08T02:40:53.180Z,67.85
2023-03-08T02:42:56.562Z,68.03
2023-03-08T02:44:59.660Z,67.98
2023-03-08T02:47:02.695Z,68.09
2023-03-08T02:49:05.916Z,68.94
2023-03-08T02:51:09.023Z,68.30
2023-03-08T02:53:12.220Z,68.91
2023-03-08T02:55:15.220Z,69.44
2023-03-08T02:57:19.739Z,68.94
2023-03-08T02:59:24.044Z,68.54
2023-03-08T03:01:28.570Z,68.08
2023-03-08T03:03:32.077Z,68.46
2023-03-08T03:05:35.157Z,69.05
2023-03-08T03:07:43.315Z,68.43
2023-03-08T03:09:52.390Z,67.82
2023-03-08T03:11:55.497Z,67.90
2023-03-08T03:14:01.556Z,67.83
2023-03-08T03:16:11.740Z,67.99
2023-03-08T03:18:14.901Z,67.25
2023-03-08T03:20:18.224Z,67.81
2023-03-08T03:22:21.272Z,67.57
2023-03-08T03:24:24.975Z,68.09
2023-03-08T03:26:31.808Z,67.41
2023-03-08T03:28:34.948Z,67.06
2023-03-08T03:30:40.795Z,67.41
2023-03-08T03:32:47.172Z,67.34
2023-03-08T03:34:54.287Z,67.30
2023-03-08T03:36:58.556Z,67.51
2023-03-08T03:39:01.755Z,67.80
2023-03-08T03:41:08.549Z,67.44
2023-03-08T03:43:12.323Z,67.52
2023-03-08T03:45:15.309Z,67.61
2023-03-08T03:47:19.964Z,68.07
2023-03-08T03:49:24.572Z,68.23
2023-03-08T03:51:28.207Z,68.04
2023-03-08T03:53:43.137Z,68.07
2023-03-08T03:55:46.201Z,69.02
2023-03-08T03:57:49.444Z,68.92
2023-03-08T03:59:53.570Z,68.02
2023-03-08T04:01:59.009Z,68.84
2023-03-08T04:04:12.056Z,68.92
2023-03-08T04:06:20.677Z,68.99
2023-03-08T04:08:26.570Z,68.75
2023-03-08T04:10:29.761Z,68.02
2023-03-08T04:12:33.157Z,68.57
2023-03-08T04:14:36.277Z,68.22
2023-03-08T04:16:41.166Z,68.08
2023-03-08T04:18:54.238Z,68.74
2023-03-08T04:20:58.984Z,68.72
2023-03-08T04:23:02.280Z,69.06
2023-03-08T04:25:12.051Z,68.66
2023-03-08T04:27:21.275Z,68.58
2023-03-08T04:29:24.419Z,68.11
2023-03-08T04:31:28.849Z,67.92
2023-03-08T04:33:34.808Z,68.75
2023-03-08T04:35:38.006Z,68.52
2023-03-08T04:37:45.509Z,68.83
2023-03-08T04:39:49.328Z,69.20
2023-03-08T04:41:53.358Z,68.83
2023-03-08T04:44:03.702Z,68.38
2023-03-08T04:46:22.364Z,68.40
2023-03-08T04:48:26.592Z,68.76
2023-03-08T04:50:29.935Z,68.37
2023-03-08T04:52:34.120Z,67.26
2023-03-08T04:54:38.822Z,67.49
2023-03-08T04:56:51.035Z,67.74
2023-03-08T04:58:55.119Z,68.12
2023-03-08T05:00:59.673Z,68.53
2023-03-08T05:03:02.907Z,68.97
2023-03-08T05:05:06.806Z,67.95
2023-03-08T05:07:10.029Z,68.07
2023-03-08T05:09:13.867Z,68.25
2023-03-08T05:11:21.886Z,69.69
2023-03-08T05:13:25.250Z,69.65
2023-03-08T05:15:28.388Z,69.42
2023-03-08T05:17:31.424Z,68.38
2023-03-08T05:19:34.711Z,68.68
2023-03-08T05:21:37.847Z,69.80
2023-03-08T05:23:41.263Z,69.84
2023-03-08T05:25:45.654Z,69.36
2023-03-08T05:27:50.982Z,69.95
2023-03-08T05:29:57.232Z,70.35
2023-03-08T05:32:02.221Z,70.47
2023-03-08T05:34:06.932Z,70.93
2023-03-08T05:36:13.778Z,69.93
2023-03-08T05:38:18.290Z,70.19
2023-03-08T05:40:21.861Z,69.67
2023-03-08T05:42:27.456Z,70.24
2023-03-08T05:44:33.024Z,69.98
2023-03-08T05:46:38.128Z,69.66
2023-03-08T05:48:42.340Z,69.73
2023-03-08T05:50:45.445Z,69.25
2023-03-08T05:52:50.486Z,69.08
2023-03-08T05:54:58.434Z,69.20
2023-03-08T05:57:01.463Z,69.48
2023-03-08T05:59:06.196Z,69.44
2023-03-08T06:01:14.311Z,69.73
2023-03-08T06:03:17.665Z,70.17
2023-03-08T06:05:21.388Z,70.77
2023-03-08T06:07:29.961Z,72.06
2023-03-08T06:09:40.424Z,71.61
2023-03-08T06:11:47.681Z,71.61
2023-03-08T06:13:50.828Z,71.73
2023-03-08T06:15:56.607Z,71.46
2023-03-08T06:18:01.954Z,71.21
2023-03-08T06:20:06.756Z,71.20
2023-03-08T06:22:13.071Z,71.06
2023-03-08T06:24:16.337Z,71.42
2023-03-08T06:26:19.455Z,71.36
2023-03-08T06:28:23.423Z,71.27
2023-03-08T06:30:26.695Z,72.00
2023-03-08T06:32:30.576Z,72.44
2023-03-08T06:34:35.033Z,73.00
2023-03-08T06:36:38.377Z,72.84
2023-03-08T06:38:42.714Z,72.37
2023-03-08T06:40:45.836Z,72.23
2023-03-08T06:42:48.894Z,72.61
2023-03-08T06:44:52.511Z,72.27
2023-03-08T06:46:55.957Z,72.56
2023-03-08T06:49:01.724Z,72.20
2023-03-08T06:51:07.506Z,71.31
2023-03-08T06:53:11.054Z,72.87
2023-03-08T06:55:30.542Z,73.72
2023-03-08T06:57:33.674Z,73.64
2023-03-08T06:59:36.726Z,74.54
2023-03-08T07:01:39.869Z,74.58
2023-03-08T07:03:45.393Z,73.92
2023-03-08T07:05:48.425Z,73.86
2023-03-08T07:07:53.152Z,73.70
2023-03-08T07:09:56.247Z,74.80
2023-03-08T07:11:59.352Z,75.27
2023-03-08T07:14:02.382Z,74.92
2023-03-08T07:16:09.154Z,75.47
2023-03-08T07:18:13.186Z,75.79
2023-03-08T07:20:19.243Z,76.72
2023-03-08T07:22:22.284Z,76.82
2023-03-08T07:24:26.736Z,77.22
2023-03-08T07:26:29.758Z,78.01
2023-03-08T07:28:32.996Z,77.94
2023-03-08T07:30:36.163Z,78.57
2023-03-08T07:32:40.801Z,78.46
2023-03-08T07:34:44.057Z,79.02
2023-03-08T07:36:47.309Z,79.30
2023-03-08T07:38:50.388Z,78.88
2023-03-08T07:40:56.993Z,79.37
2023-03-08T07:43:00.635Z,79.57
2023-03-08T07:45:24.131Z,80.12
2023-03-08T07:47:27.560Z,81.32
2023-03-08T07:49:30.842Z,79.92
2023-03-08T07:51:33.979Z,80.00
2023-03-08T07:53:37.882Z,80.20
2023-03-08T07:55:40.972Z,80.54
2023-03-08T07:57:45.414Z,81.15
2023-03-08T07:59:48.471Z,81.13
2023-03-08T08:01:51.822Z,81.70
2023-03-08T08:03:54.966Z,81.84
2023-03-08T08:05:58.037Z,82.14
2023-03-08T08:08:01.046Z,82.64
2023-03-08T08:10:04.529Z,83.15
2023-03-08T08:12:08.349Z,83.07
2023-03-08T08:14:12.860Z,84.10
2023-03-08T08:16:16.978Z,84.32
2023-03-08T08:18:20.178Z,84.15
2023-03-08T08:20:25.168Z,84.89
2023-03-08T08:22:28.381Z,84.80
2023-03-08T08:24:32.905Z,85.28
2023-03-08T08:26:36.041Z,86.02
2023-03-08T08:28:40.560Z,86.13
2023-03-08T08:30:45.018Z,86.43
2023-03-08T08:32:48.306Z,86.88
2023-03-08T08:34:51.454Z,87.31
2023-03-08T08:36:54.568Z,87.64
2023-03-08T08:38:57.616Z,88.51
2023-03-08T08:41:01.465Z,88.28
2023-03-08T08:43:04.500Z,88.28
2023-03-08T08:45:08.464Z,88.78
2023-03-08T08:47:12.946Z,89.08
2023-03-08T08:49:16.038Z,89.79
2023-03-08T08:51:19.132Z,89.65
2023-03-08T08:53:22.655Z,91.08
2023-03-08T08:55:25.896Z,91.56
2023-03-08T08:57:29.194Z,90.97
2023-03-08T08:59:32.262Z,91.21
2023-03-08T09:01:36.942Z,90.28
2023-03-08T09:03:41.429Z,90.77
2023-03-08T09:05:45.802Z,91.31
2023-03-08T09:07:49.618Z,91.60
2023-03-08T09:09:55.518Z,91.53
2023-03-08T09:11:58.690Z,90.45
2023-03-08T09:14:03.846Z,91.06
2023-03-08T09:16:07.454Z,91.12
2023-03-08T09:18:10.601Z,91.18
2023-03-08T09:20:15.433Z,92.38
2023-03-08T09:22:18.884Z,91.50
2023-03-08T09:24:22.064Z,91.51
2023-03-08T09:26:25.352Z,92.19
2023-03-08T09:28:28.451Z,91.97
2023-03-08T09:30:32.966Z,91.76
2023-03-08T09:32:36.954Z,91.54
2023-03-08T09:34:40.074Z,90.26
2023-03-08T09:36:44.559Z,90.86
2023-03-08T09:38:48.817Z,90.62
2023-03-08T09:41:00.416Z,90.87
2023-03-08T09:43:06.184Z,90.76
2023-03-08T09:45:19.200Z,91.56
2023-03-08T09:47:32.999Z,91.66
2023-03-08T09:49:37.200Z,91.43
2023-03-08T09:51:43.408Z,91.17
2023-03-08T09:53:50.568Z,91.89
2023-03-08T09:55:56.955Z,91.82
2023-03-08T09:58:03.215Z,92.30
2023-03-08T10:00:11.266Z,92.08
2023-03-08T10:02:25.244Z,92.06
2023-03-08T10:04:37.206Z,92.20
2023-03-08T10:06:44.758Z,91.70
2023-03-08T10:08:56.148Z,92.00
2023-03-08T10:11:01.378Z,91.77
2023-03-08T10:13:25.169Z,90.97
2023-03-08T10:15:29.627Z,91.28
2023-03-08T10:17:40.944Z,91.51
2023-03-08T10:19:46.649Z,91.65
2023-03-08T10:21:50.073Z,91.20
2023-03-08T10:24:00.295Z,91.53
2023-03-08T10:26:07.081Z,90.10
2023-03-08T10:28:13.874Z,89.57
2023-03-08T10:30:19.990Z,89.92
2023-03-08T10:32:24.665Z,90.25
2023-03-08T10:34:31.364Z,90.04
2023-03-08T10:36:34.510Z,88.29
2023-03-08T10:38:38.362Z,88.55
2023-03-08T10:40:42.813Z,89.09
2023-03-08T10:42:53.428Z,89.59
2023-03-08T10:44:59.457Z,89.44
2023-03-08T10:47:03.537Z,88.54
2023-03-08T10:49:10.921Z,87.69
2023-03-08T10:51:18.908Z,88.53
2023-03-08T10:53:23.173Z,87.08
2023-03-08T10:55:29.354Z,87.42
2023-03-08T10:57:34.384Z,88.12
2023-03-08T10:59:37.711Z,89.17
2023-03-08T11:01:49.949Z,88.15
2023-03-08T11:04:00.217Z,87.58
2023-03-08T11:06:04.739Z,87.70
2023-03-08T11:08:18.562Z,87.59
2023-03-08T11:10:24.728Z,88.99
2023-03-08T11:12:28.129Z,87.79
2023-03-08T11:14:32.880Z,88.31
2023-03-08T11:16:49.751Z,86.76
2023-03-08T11:18:59.497Z,88.60
2023-03-08T11:21:07.160Z,87.22
2023-03-08T11:23:18.144Z,88.16
2023-03-08T11:25:33.309Z,87.61
2023-03-08T11:27:49.765Z,88.59
2023-03-08T11:30:05.298Z,88.77
2023-03-08T11:32:18.151Z,89.49
2023-03-08T11:34:56.741Z,90.61
2023-03-08T11:37:04.080Z,89.63
2023-03-08T11:39:25.845Z,90.12
2023-03-08T11:41:35.040Z,90.46
2023-03-08T11:43:49.050Z,90.10
2023-03-08T11:45:57.923Z,91.14
2023-03-08T11:48:23.884Z,90.39
2023-03-08T11:50:29.240Z,90.92
2023-03-08T11:52:35.991Z,90.53
2023-03-08T11:54:50.361Z,91.19
2023-03-08T11:56:56.369Z,90.96
2023-03-08T11:59:02.822Z,90.97
2023-03-08T12:01:12.312Z,92.67
2023-03-08T12:03:18.231Z,92.60
2023-03-08T12:05:27.377Z,93.19
2023-03-08T12:07:35.412Z,92.65
2023-03-08T12:09:53.069Z,92.28
2023-03-08T12:12:03.416Z,92.20
2023-03-08T12:14:13.986Z,92.19
2023-03-08T12:16:20.930Z,92.43
2023-03-08T12:18:29.772Z,91.78
2023-03-08T12:20:36.387Z,92.39
2023-03-08T12:22:46.867Z,92.35
2023-03-08T12:24:53.913Z,91.80
2023-03-08T12:27:00.373Z,91.75
2023-03-08T12:29:07.934Z,91.71
2023-03-08T12:31:27.957Z,91.01
2023-03-08T12:33:33.144Z,91.65
2023-03-08T12:35:37.650Z,90.91
2023-03-08T12:37:40.965Z,91.10
2023-03-08T12:39:44.148Z,91.06
2023-03-08T12:41:58.126Z,91.04
2023-03-08T12:44:03.646Z,90.98
2023-03-08T12:46:08.927Z,90.51
2023-03-08T12:48:23.835Z,90.55
2023-03-08T12:50:27.363Z,90.70
2023-03-08T12:52:34.968Z,90.11
2023-03-08T12:54:38.281Z,90.35
2023-03-08T12:56:51.841Z,89.74
2023-03-08T12:58:56.050Z,90.09
2023-03-08T13:01:00.698Z,89.07
2023-03-08T13:03:06.018Z,88.79
2023-03-08T13:05:29.241Z,90.05
2023-03-08T13:07:37.092Z,89.35
2023-03-08T13:09:49.064Z,88.89
2023-03-08T13:11:59.121Z,89.83
2023-03-08T13:14:02.582Z,88.07
2023-03-08T13:16:07.384Z,88.84
2023-03-08T13:18:16.401Z,88.08
2023-03-08T13:20:24.109Z,88.60
2023-03-08T13:22:32.537Z,88.31
2023-03-08T13:24:41.771Z,87.88
2023-03-08T13:26:54.938Z,87.68
2023-03-08T13:28:58.350Z,87.62
2023-03-08T13:31:04.440Z,88.31
2023-03-08T13:33:10.051Z,87.85
2023-03-08T13:35:16.350Z,88.83
2023-03-08T13:37:25.850Z,88.57
2023-03-08T13:39:30.890Z,88.46
2023-03-08T13:41:35.937Z,88.43
2023-03-08T13:43:39.011Z,86.93
2023-03-08T13:45:42.473Z,87.29
2023-03-08T13:47:47.262Z,87.19
2023-03-08T13:49:51.933Z,86.02
2023-03-08T13:51:57.332Z,87.68
2023-03-08T13:54:02.199Z,87.05
2023-03-08T13:56:06.742Z,87.50
2023-03-08T13:58:20.938Z,86.82
2023-03-08T14:00:29.983Z,86.97
2023-03-08T14:02:33.603Z,86.28
2023-03-08T14:04:36.679Z,86.53
2023-03-08T14:06:43.373Z,87.35
2023-03-08T14:08:47.371Z,86.14
2023-03-08T14:10:54.962Z,86.38
2023-03-08T14:12:59.087Z,87.95
2023-03-08T14:15:04.130Z,85.91
2023-03-08T14:17:07.869Z,87.95
2023-03-08T14:19:12.516Z,88.35
2023-03-08T14:21:17.944Z,90.60
2023-03-08T14:23:25.084Z,91.39
2023-03-08T14:25:29.835Z,91.22
2023-03-08T14:27:39.275Z,91.61
2023-03-08T14:29:43.335Z,91.95
2023-03-08T14:31:58.658Z,91.03
2023-03-08T14:34:03.383Z,89.86
2023-03-08T14:36:07.338Z,89.54
2023-03-08T14:38:23.952Z,91.25
2023-03-08T14:40:30.670Z,90.90
2023-03-08T14:42:37.361Z,89.27
2023-03-08T14:44:40.571Z,89.24
2023-03-08T14:46:45.979Z,89.73
2023-03-08T14:48:58.646Z,88.32
2023-03-08T14:51:03.461Z,88.67
2023-03-08T14:53:25.532Z,90.22
2023-03-08T14:55:31.216Z,91.05
2023-03-08T14:57:35.718Z,91.66
2023-03-08T14:59:40.956Z,90.93
2023-03-08T15:01:44.155Z,89.77
2023-03-08T15:03:47.361Z,91.90
2023-03-08T15:05:50.964Z,89.75
2023-03-08T15:07:54.310Z,90.84
2023-03-08T15:09:57.457Z,89.97
2023-03-08T15:12:01.623Z,92.38
2023-03-08T15:14:06.294Z,91.17
2023-03-08T15:16:13.281Z,91.41
2023-03-08T15:18:17.528Z,92.52
2023-03-08T15:20:20.848Z,92.34
2023-03-08T15:22:23.958Z,92.37
2023-03-08T15:24:27.086Z,93.23
2023-03-08T15:26:32.539Z,91.75
2023-03-08T15:28:36.782Z,93.09
2023-03-08T15:30:41.296Z,93.19
2023-03-08T15:32:44.586Z,93.07
2023-03-08T15:34:47.698Z,91.00
2023-03-08T15:36:51.771Z,91.26
2023-03-08T15:38:54.840Z,92.11
2023-03-08T15:40:58.004Z,91.63
2023-03-08T15:43:01.306Z,91.43
2023-03-08T15:45:04.874Z,92.45
2023-03-08T15:47:10.546Z,89.80
2023-03-08T15:49:13.731Z,91.67
2023-03-08T15:51:19.484Z,91.76
2023-03-08T15:53:34.594Z,90.40
2023-03-08T15:55:39.683Z,89.63
2023-03-08T15:57:43.082Z,91.72
2023-03-08T15:59:46.185Z,91.10
2023-03-08T16:01:49.359Z,89.60
2023-03-08T16:03:54.877Z,90.02
2023-03-08T16:05:58.602Z,90.86
2023-03-08T16:08:03.113Z,90.83
2023-03-08T16:10:08.537Z,90.71
2023-03-08T16:12:11.781Z,89.84
2023-03-08T16:14:17.788Z,90.54
2023-03-08T16:16:21.725Z,91.05
2023-03-08T16:18:24.892Z,91.80
2023-03-08T16:20:29.384Z,91.43
2023-03-08T16:22:32.599Z,92.75
2023-03-08T16:24:35.636Z,92.08
2023-03-08T16:26:38.797Z,91.04
2023-03-08T16:28:41.906Z,91.65
2023-03-08T16:30:45.012Z,91.12
2023-03-08T16:32:48.221Z,92.56
2023-03-08T16:34:51.939Z,91.88
2023-03-08T16:36:56.842Z,92.44
2023-03-08T16:38:59.990Z,90.57
2023-03-08T16:41:12.633Z,90.95
2023-03-08T16:43:17.503Z,91.96
2023-03-08T16:45:20.709Z,91.16
2023-03-08T16:47:25.271Z,92.11
2023-03-08T16:49:29.214Z,89.98
2023-03-08T16:51:32.543Z,92.03
2023-03-08T16:53:36.996Z,91.04
2023-03-08T16:55:42.199Z,92.18
2023-03-08T16:57:45.473Z,92.44
2023-03-08T16:59:49.024Z,91.68
2023-03-08T17:01:52.180Z,92.89
2023-03-08T17:03:56.435Z,93.58
2023-03-08T17:05:59.629Z,94.12
2023-03-08T17:08:02.778Z,93.57
2023-03-08T17:10:09.084Z,93.40
2023-03-08T17:12:12.135Z,92.82
2023-03-08T17:14:15.659Z,93.59
2023-03-08T17:16:19.595Z,94.06
2023-03-08T17:18:24.384Z,94.11
2023-03-08T17:20:27.581Z,94.61
2023-03-08T17:22:33.593Z,92.80
2023-03-08T17:24:36.741Z,93.47
2023-03-08T17:26:44.590Z,94.72
2023-03-08T17:28:47.921Z,93.31
2023-03-08T17:30:50.967Z,91.99
2023-03-08T17:32:54.098Z,92.31
2023-03-08T17:34:57.305Z,92.21
2023-03-08T17:37:00.401Z,93.27
2023-03-08T17:39:04.103Z,93.34
2023-03-08T17:41:08.342Z,92.36
2023-03-08T17:43:13.364Z,93.91
2023-03-08T17:45:17.547Z,98.04
2023-03-08T17:47:20.577Z,96.40
2023-03-08T17:49:25.130Z,97.61
2023-03-08T17:51:31.363Z,97.44
2023-03-08T17:53:34.942Z,98.22
2023-03-08T17:55:41.465Z,97.67
2023-03-08T17:57:44.534Z,97.99
2023-03-08T17:59:50.017Z,96.64
2023-03-08T18:01:53.192Z,96.56
2023-03-08T18:03:57.646Z,96.26
2023-03-08T18:06:00.783Z,96.60
2023-03-08T18:08:03.967Z,95.52
2023-03-08T18:10:10.920Z,96.15
2023-03-08T18:12:14.029Z,96.87
2023-03-08T18:14:17.081Z,96.53
2023-03-08T18:16:22.896Z,96.59
2023-03-08T18:18:27.165Z,96.04
2023-03-08T18:20:30.461Z,95.22
2023-03-08T18:22:33.664Z,95.75
2023-03-08T18:24:36.828Z,94.48
2023-03-08T18:26:39.955Z,94.49
2023-03-08T18:28:43.347Z,95.39
2023-03-08T18:30:48.869Z,95.75
2023-03-08T18:32:53.486Z,94.57
2023-03-08T18:34:56.898Z,96.51
2023-03-08T18:36:59.925Z,93.86
2023-03-08T18:39:05.610Z,93.96
2023-03-08T18:41:16.048Z,95.75
2023-03-08T18:43:19.226Z,95.21
2023-03-08T18:45:22.706Z,94.19
2023-03-08T18:47:25.920Z,95.76
2023-03-08T18:49:30.600Z,95.39
2023-03-08T18:51:35.536Z,95.86
2023-03-08T18:53:38.599Z,95.45
2023-03-08T18:55:41.902Z,96.02
2023-03-08T18:57:45.226Z,96.09
2023-03-08T18:59:48.343Z,95.32
2023-03-08T19:01:51.564Z,95.28
2023-03-08T19:03:54.778Z,95.24
2023-03-08T19:06:02.965Z,94.66
2023-03-08T19:08:06.177Z,94.94
2023-03-08T19:10:14.686Z,95.60
2023-03-08T19:12:17.794Z,96.19
2023-03-08T19:14:20.882Z,96.48
2023-03-08T19:16:25.549Z,95.00
2023-03-08T19:18:28.852Z,95.13
2023-03-08T19:20:32.114Z,97.45
2023-03-08T19:22:36.663Z,97.23
2023-03-08T19:24:39.854Z,97.26
2023-03-08T19:26:46.859Z,98.80
2023-03-08T19:28:50.068Z,99.43
2023-03-08T19:30:53.209Z,97.41
2023-03-08T19:32:56.962Z,98.93
2023-03-08T19:35:01.797Z,97.03
2023-03-08T19:37:07.069Z,98.17
2023-03-08T19:39:17.778Z,97.38
2023-03-08T19:41:20.943Z,98.26
2023-03-08T19:43:24.047Z,99.96
2023-03-08T19:45:27.193Z,100.00
2023-03-08T19:47:30.345Z,99.44
2023-03-08T19:49:34.960Z,100.00
2023-03-08T19:51:38.146Z,99.43
2023-03-08T19:53:42.116Z,100.00
2023-03-08T19:55:51.161Z,100.00
2023-03-08T19:57:54.266Z,100.00
2023-03-08T19:59:59.354Z,100.00
2023-03-08T20:02:02.624Z,100.00
2023-03-08T20:04:06.056Z,100.00
2023-03-08T20:06:10.028Z,100.00
2023-03-08T20:08:14.026Z,100.00
2023-03-08T20:10:18.537Z,100.00
2023-03-08T20:12:23.139Z,100.00
2023-03-08T20:14:27.871Z,100.00
2023-03-08T20:16:31.484Z,100.00
2023-03-08T20:18:34.691Z,100.00
2023-03-08T20:20:38.023Z,100.00
2023-03-08T20:22:42.370Z,100.00
2023-03-08T20:24:45.680Z,100.00
2023-03-08T20:26:49.464Z,100.00
2023-03-08T20:28:54.151Z,100.00
2023-03-08T20:30:57.332Z,100.00
2023-03-08T20:33:00.515Z,100.00
2023-03-08T20:35:04.278Z,100.00
2023-03-08T20:37:07.339Z,100.00
2023-03-08T20:39:10.872Z,100.00
2023-03-08T20:41:15.859Z,100.00
2023-03-08T20:43:19.123Z,100.00
2023-03-08T20:45:23.954Z,100.00
2023-03-08T20:47:27.056Z,100.00
2023-03-08T20:49:30.199Z,100.00
2023-03-08T20:51:33.337Z,100.00
2023-03-08T20:53:36.618Z,100.00
2023-03-08T20:55:40.865Z,100.00
2023-03-08T20:57:44.137Z,100.00
2023-03-08T20:59:47.197Z,100.00
2023-03-08T21:01:51.721Z,100.00
2023-03-08T21:03:54.816Z,100.00
2023-03-08T21:05:57.948Z,100.00
2023-03-08T21:08:01.367Z,100.00
2023-03-08T21:10:05.038Z,100.00
2023-03-08T21:12:08.396Z,100.00
2023-03-08T21:14:12.016Z,100.00
2023-03-08T21:16:17.609Z,100.00
2023-03-08T21:18:22.105Z,100.00
2023-03-08T21:20:25.446Z,100.00
2023-03-08T21:22:29.128Z,100.00
2023-03-08T21:24:32.248Z,100.00
2023-03-08T21:26:35.855Z,100.00
2023-03-08T21:28:38.956Z,100.00
2023-03-08T21:30:42.195Z,100.00
2023-03-08T21:32:45.357Z,100.00
2023-03-08T21:34:50.274Z,100.00
2023-03-08T21:36:53.377Z,100.00
2023-03-08T21:38:57.718Z,100.00
2023-03-08T21:41:00.841Z,100.00
2023-03-08T21:43:03.958Z,100.00
2023-03-08T21:45:08.117Z,100.00
2023-03-08T21:47:11.261Z,100.00
2023-03-08T21:49:18.160Z,100.00
2023-03-08T21:51:22.893Z,100.00
2023-03-08T21:53:26.044Z,100.00
2023-03-08T21:55:29.132Z,100.00
2023-03-08T21:57:34.042Z,100.00
2023-03-08T21:59:37.097Z,100.00
2023-03-08T22:01:40.501Z,100.00
2023-03-08T22:03:43.643Z,100.00
2023-03-08T22:05:46.836Z,100.00
2023-03-08T22:07:51.337Z,100.00
2023-03-08T22:09:54.452Z,100.00
2023-03-08T22:11:58.560Z,100.00
2023-03-08T22:14:02.255Z,100.00
2023-03-08T22:16:06.055Z,100.00
2023-03-08T22:18:09.158Z,100.00
2023-03-08T22:20:13.074Z,100.00
2023-03-08T22:22:16.838Z,100.00
2023-03-08T22:24:21.321Z,100.00
2023-03-08T22:26:25.503Z,100.00
2023-03-08T22:28:28.535Z,100.00
2023-03-08T22:30:31.611Z,100.00
2023-03-08T22:32:34.764Z,100.00
2023-03-08T22:34:37.914Z,100.00
2023-03-08T22:36:41.026Z,100.00
2023-03-08T22:38:44.301Z,100.00
2023-03-08T22:40:48.710Z,100.00
2023-03-08T22:42:51.783Z,100.00
2023-03-08T22:44:54.846Z,100.00
2023-03-08T22:46:57.946Z,100.00
2023-03-08T22:49:04.652Z,100.00
2023-03-08T22:51:11.383Z,100.00
2023-03-08T22:53:14.676Z,100.00
2023-03-08T22:55:17.703Z,100.00
2023-03-08T22:57:22.227Z,100.00
2023-03-08T22:59:25.762Z,100.00
2023-03-08T23:01:30.062Z,100.00
2023-03-08T23:03:33.419Z,100.00
2023-03-08T23:05:36.672Z,100.00
2023-03-08T23:07:39.701Z,100.00
2023-03-08T23:09:42.777Z,100.00
2023-03-08T23:11:46.436Z,100.00
2023-03-08T23:13:50.851Z,100.00
2023-03-08T23:15:54.004Z,100.00
2023-03-08T23:17:57.026Z,100.00
2023-03-08T23:20:00.110Z,100.00
2023-03-08T23:22:03.794Z,100.00
2023-03-08T23:24:07.546Z,100.00
2023-03-08T23:26:12.810Z,100.00
2023-03-08T23:28:15.853Z,100.00
2023-03-08T23:30:20.431Z,100.00
2023-03-08T23:32:23.482Z,100.00
2023-03-08T23:34:26.754Z,100.00
2023-03-08T23:36:31.762Z,100.00
2023-03-08T23:38:34.976Z,100.00
2023-03-08T23:40:39.867Z,100.00
2023-03-08T23:42:42.927Z,100.00
2023-03-08T23:44:46.202Z,100.00
2023-03-08T23:46:50.542Z,100.00
2023-03-08T23:48:55.174Z,100.00
2023-03-08T23:50:58.301Z,100.00
2023-03-08T23:53:01.387Z,100.00
2023-03-08T23:55:04.946Z,100.00
2023-03-08T23:57:08.307Z,100.00
2023-03-08T23:59:17.495Z,100.00
